sensor_id;sensor_type;location;lat;lon;timestamp;pressure;altitude;pressure_sealevel;temperature;humidity
58927;BME280;44712;52.530;9.760;2023-02-14T15:06:05;102669.25;;;12.57;69.34
58927;BME280;44712;52.530;9.760;2023-02-14T15:20:23;102660.69;;;12.14;71.76
58927;BME280;44712;52.530;9.760;2023-02-14T15:22:51;102656.09;;;12.07;72.81
58927;BME280;44712;52.530;9.760;2023-02-14T15:27:47;102655.91;;;11.94;73.80
58927;BME280;44712;52.530;9.760;2023-02-14T15:30:25;102648.56;;;11.84;73.57
58927;BME280;44712;52.530;9.760;2023-02-14T15:32:55;102641.06;;;11.64;74.51
58927;BME280;44712;52.530;9.760;2023-02-14T15:35:26;102639.13;;;11.54;74.45
58927;BME280;44712;52.530;9.760;2023-02-14T15:37:57;102643.56;;;11.47;75.29
58927;BME280;44712;52.530;9.760;2023-02-14T15:40:29;102642.53;;;11.39;75.85
58927;BME280;44712;52.530;9.760;2023-02-14T15:43:23;102644.22;;;11.29;75.74
58927;BME280;44712;52.530;9.760;2023-02-14T15:45:53;102643.13;;;11.18;76.89
58927;BME280;44712;52.530;9.760;2023-02-14T15:48:28;102646.56;;;11.06;77.11
58927;BME280;44712;52.530;9.760;2023-02-14T15:50:57;102647.22;;;10.88;77.83
58927;BME280;44712;52.530;9.760;2023-02-14T15:53:35;102643.50;;;10.83;78.10
58927;BME280;44712;52.530;9.760;2023-02-14T15:56:08;102641.59;;;10.76;77.76
58927;BME280;44712;52.530;9.760;2023-02-14T15:58:37;102637.66;;;10.58;78.97
58927;BME280;44712;52.530;9.760;2023-02-14T16:01:06;102641.13;;;10.48;79.41
58927;BME280;44712;52.530;9.760;2023-02-14T16:03:36;102642.63;;;10.33;80.20
58927;BME280;44712;52.530;9.760;2023-02-14T16:06:04;102640.75;;;10.29;80.72
58927;BME280;44712;52.530;9.760;2023-02-14T16:08:37;102642.44;;;10.24;81.05
58927;BME280;44712;52.530;9.760;2023-02-14T16:11:25;102644.00;;;10.11;80.93
58927;BME280;44712;52.530;9.760;2023-02-14T16:13:52;102643.75;;;9.97;81.43
58927;BME280;44712;52.530;9.760;2023-02-14T16:16:19;102639.13;;;9.92;82.06
58927;BME280;44712;52.530;9.760;2023-02-14T16:18:48;102639.00;;;9.85;82.00
58927;BME280;44712;52.530;9.760;2023-02-14T16:21:27;102630.47;;;9.65;82.10
58927;BME280;44712;52.530;9.760;2023-02-14T16:26:34;102625.72;;;9.53;83.87
58927;BME280;44712;52.530;9.760;2023-02-14T16:29:02;102620.09;;;9.44;83.72
58927;BME280;44712;52.530;9.760;2023-02-14T16:31:29;102633.44;;;9.36;84.06
58927;BME280;44712;52.530;9.760;2023-02-14T16:33:58;102632.44;;;9.31;84.43
58927;BME280;44712;52.530;9.760;2023-02-14T16:36:27;102633.13;;;9.23;84.07
58927;BME280;44712;52.530;9.760;2023-02-14T16:38:55;102635.69;;;9.16;84.58
58927;BME280;44712;52.530;9.760;2023-02-14T16:41:25;102630.13;;;9.09;84.93
58927;BME280;44712;52.530;9.760;2023-02-14T16:43:53;102637.13;;;9.00;85.00
58927;BME280;44712;52.530;9.760;2023-02-14T16:46:21;102643.25;;;8.93;85.03
58927;BME280;44712;52.530;9.760;2023-02-14T16:48:48;102641.19;;;8.83;85.45
58927;BME280;44712;52.530;9.760;2023-02-14T16:51:20;102645.50;;;8.75;85.62
58927;BME280;44712;52.530;9.760;2023-02-14T16:53:49;102649.56;;;8.57;85.75
58927;BME280;44712;52.530;9.760;2023-02-14T16:56:19;102648.44;;;8.47;87.65
58927;BME280;44712;52.530;9.760;2023-02-14T16:58:48;102657.22;;;8.42;87.40
58927;BME280;44712;52.530;9.760;2023-02-14T17:01:15;102648.88;;;8.32;87.12
58927;BME280;44712;52.530;9.760;2023-02-14T17:03:41;102659.44;;;8.23;87.08
58927;BME280;44712;52.530;9.760;2023-02-14T17:06:13;102657.34;;;8.13;86.73
58927;BME280;44712;52.530;9.760;2023-02-14T17:08:41;102655.44;;;8.09;87.00
58927;BME280;44712;52.530;9.760;2023-02-14T17:11:09;102656.28;;;8.06;87.44
58927;BME280;44712;52.530;9.760;2023-02-14T17:13:37;102651.69;;;8.03;87.38
58927;BME280;44712;52.530;9.760;2023-02-14T17:16:07;102653.28;;;7.95;87.42
58927;BME280;44712;52.530;9.760;2023-02-14T17:18:38;102649.53;;;7.90;87.21
58927;BME280;44712;52.530;9.760;2023-02-14T17:21:06;102652.91;;;7.83;87.33
58927;BME280;44712;52.530;9.760;2023-02-14T17:23:33;102653.63;;;7.77;87.96
58927;BME280;44712;52.530;9.760;2023-02-14T17:26:00;102649.06;;;7.75;88.48
58927;BME280;44712;52.530;9.760;2023-02-14T17:28:27;102650.44;;;7.60;87.26
58927;BME280;44712;52.530;9.760;2023-02-14T17:30:53;102648.53;;;7.56;88.34
58927;BME280;44712;52.530;9.760;2023-02-14T17:33:20;102644.97;;;7.57;88.77
58927;BME280;44712;52.530;9.760;2023-02-14T17:35:49;102657.50;;;7.55;89.59
58927;BME280;44712;52.530;9.760;2023-02-14T17:38:17;102655.59;;;7.51;89.20
58927;BME280;44712;52.530;9.760;2023-02-14T17:40:44;102650.94;;;7.47;89.36
58927;BME280;44712;52.530;9.760;2023-02-14T17:43:10;102655.13;;;7.37;89.11
58927;BME280;44712;52.530;9.760;2023-02-14T17:45:37;102649.63;;;7.32;89.36
58927;BME280;44712;52.530;9.760;2023-02-14T17:48:04;102652.13;;;7.26;88.70
58927;BME280;44712;52.530;9.760;2023-02-14T17:50:30;102647.41;;;7.19;88.90
58927;BME280;44712;52.530;9.760;2023-02-14T17:52:57;102656.28;;;7.15;89.04
58927;BME280;44712;52.530;9.760;2023-02-14T17:55:24;102650.63;;;7.07;88.89
58927;BME280;44712;52.530;9.760;2023-02-14T17:57:50;102652.31;;;7.03;89.37
58927;BME280;44712;52.530;9.760;2023-02-14T18:00:21;102652.09;;;6.97;88.94
58927;BME280;44712;52.530;9.760;2023-02-14T18:02:48;102651.91;;;6.91;89.50
58927;BME280;44712;52.530;9.760;2023-02-14T18:05:15;102647.94;;;6.80;88.14
58927;BME280;44712;52.530;9.760;2023-02-14T18:07:42;102654.00;;;6.73;89.07
58927;BME280;44712;52.530;9.760;2023-02-14T18:10:09;102645.69;;;6.66;89.29
58927;BME280;44712;52.530;9.760;2023-02-14T18:12:36;102648.25;;;6.62;89.61
58927;BME280;44712;52.530;9.760;2023-02-14T18:15:03;102646.19;;;6.54;89.58
58927;BME280;44712;52.530;9.760;2023-02-14T18:17:31;102644.22;;;6.49;90.12
58927;BME280;44712;52.530;9.760;2023-02-14T18:19:57;102638.66;;;6.43;90.85
58927;BME280;44712;52.530;9.760;2023-02-14T18:22:24;102633.94;;;6.37;90.77
58927;BME280;44712;52.530;9.760;2023-02-14T18:24:55;102633.66;;;6.29;91.52
58927;BME280;44712;52.530;9.760;2023-02-14T18:27:25;102625.44;;;6.25;91.73
58927;BME280;44712;52.530;9.760;2023-02-14T18:29:51;102631.53;;;6.19;92.00
58927;BME280;44712;52.530;9.760;2023-02-14T18:32:18;102624.19;;;6.13;92.35
58927;BME280;44712;52.530;9.760;2023-02-14T18:34:45;102615.84;;;6.06;92.21
58927;BME280;44712;52.530;9.760;2023-02-14T18:37:12;102624.44;;;5.97;92.57
58927;BME280;44712;52.530;9.760;2023-02-14T18:39:38;102628.63;;;5.89;92.80
58927;BME280;44712;52.530;9.760;2023-02-14T18:42:05;102622.84;;;5.78;92.87
58927;BME280;44712;52.530;9.760;2023-02-14T18:44:32;102616.25;;;5.68;93.48
58927;BME280;44712;52.530;9.760;2023-02-14T18:46:59;102615.75;;;5.56;93.31
58927;BME280;44712;52.530;9.760;2023-02-14T18:49:27;102618.03;;;5.45;93.91
58927;BME280;44712;52.530;9.760;2023-02-14T18:51:57;102614.16;;;5.36;94.64
58927;BME280;44712;52.530;9.760;2023-02-14T18:54:24;102612.16;;;5.31;94.94
58927;BME280;44712;52.530;9.760;2023-02-14T18:56:51;102603.91;;;5.26;95.06
58927;BME280;44712;52.530;9.760;2023-02-14T18:59:18;102610.00;;;5.22;95.78
58927;BME280;44712;52.530;9.760;2023-02-14T19:01:45;102600.00;;;5.18;96.37
58927;BME280;44712;52.530;9.760;2023-02-14T19:04:13;102595.38;;;5.14;96.10
58927;BME280;44712;52.530;9.760;2023-02-14T19:06:42;102598.78;;;5.10;96.33
58927;BME280;44712;52.530;9.760;2023-02-14T19:09:12;102595.13;;;5.08;96.99
58927;BME280;44712;52.530;9.760;2023-02-14T19:11:39;102592.31;;;5.05;97.11
58927;BME280;44712;52.530;9.760;2023-02-14T19:14:06;102591.22;;;4.99;96.67
58927;BME280;44712;52.530;9.760;2023-02-14T19:16:41;102591.09;;;4.96;97.02
58927;BME280;44712;52.530;9.760;2023-02-14T19:19:09;102583.59;;;4.88;96.77
58927;BME280;44712;52.530;9.760;2023-02-14T19:21:36;102588.53;;;4.77;97.07
58927;BME280;44712;52.530;9.760;2023-02-14T19:24:04;102588.34;;;4.72;97.83
58927;BME280;44712;52.530;9.760;2023-02-14T19:26:36;102588.16;;;4.67;98.65
58927;BME280;44712;52.530;9.760;2023-02-14T19:29:13;102584.41;;;4.62;98.60
58927;BME280;44712;52.530;9.760;2023-02-14T19:31:42;102590.66;;;4.63;99.45
58927;BME280;44712;52.530;9.760;2023-02-14T19:34:19;102596.81;;;4.60;99.79
58927;BME280;44712;52.530;9.760;2023-02-14T19:36:46;102581.44;;;4.56;100.00
58927;BME280;44712;52.530;9.760;2023-02-14T19:39:13;102595.66;;;4.53;100.00
58927;BME280;44712;52.530;9.760;2023-02-14T19:41:40;102590.94;;;4.48;100.00
58927;BME280;44712;52.530;9.760;2023-02-14T19:44:09;102585.44;;;4.45;100.00
58927;BME280;44712;52.530;9.760;2023-02-14T19:46:40;102586.03;;;4.38;100.00
58927;BME280;44712;52.530;9.760;2023-02-14T19:49:11;102576.78;;;4.29;100.00
58927;BME280;44712;52.530;9.760;2023-02-14T19:51:39;102574.59;;;4.21;100.00
58927;BME280;44712;52.530;9.760;2023-02-14T19:54:07;102577.09;;;4.16;100.00
58927;BME280;44712;52.530;9.760;2023-02-14T19:56:41;102571.59;;;4.13;100.00
58927;BME280;44712;52.530;9.760;2023-02-14T19:59:08;102572.47;;;4.12;100.00
58927;BME280;44712;52.530;9.760;2023-02-14T20:01:41;102567.81;;;4.08;100.00
58927;BME280;44712;52.530;9.760;2023-02-14T20:04:13;102569.63;;;4.09;100.00
58927;BME280;44712;52.530;9.760;2023-02-14T20:06:41;102565.88;;;4.04;100.00
58927;BME280;44712;52.530;9.760;2023-02-14T20:09:08;102567.41;;;3.98;100.00
58927;BME280;44712;52.530;9.760;2023-02-14T20:11:40;102570.81;;;3.94;100.00
58927;BME280;44712;52.530;9.760;2023-02-14T20:14:12;102566.31;;;3.93;100.00
58927;BME280;44712;52.530;9.760;2023-02-14T20:16:42;102574.22;;;3.90;100.00
58927;BME280;44712;52.530;9.760;2023-02-14T20:19:11;102574.00;;;3.85;100.00
58927;BME280;44712;52.530;9.760;2023-02-14T20:21:39;102568.56;;;3.84;100.00
58927;BME280;44712;52.530;9.760;2023-02-14T20:24:07;102562.81;;;3.75;100.00
58927;BME280;44712;52.530;9.760;2023-02-14T20:26:35;102560.84;;;3.71;100.00
58927;BME280;44712;52.530;9.760;2023-02-14T20:29:03;102567.75;;;3.65;100.00
58927;BME280;44712;52.530;9.760;2023-02-14T20:31:32;102560.44;;;3.61;100.00
58927;BME280;44712;52.530;9.760;2023-02-14T20:34:00;102558.66;;;3.62;100.00
58927;BME280;44712;52.530;9.760;2023-02-14T20:36:27;102556.75;;;3.59;100.00
58927;BME280;44712;52.530;9.760;2023-02-14T20:38:56;102559.53;;;3.61;100.00
58927;BME280;44712;52.530;9.760;2023-02-14T20:41:23;102551.41;;;3.59;100.00
58927;BME280;44712;52.530;9.760;2023-02-14T20:43:50;102554.78;;;3.55;100.00
58927;BME280;44712;52.530;9.760;2023-02-14T20:46:17;102550.97;;;3.50;100.00
58927;BME280;44712;52.530;9.760;2023-02-14T20:48:44;102550.03;;;3.48;100.00
58927;BME280;44712;52.530;9.760;2023-02-14T20:51:18;102542.81;;;3.47;100.00
58927;BME280;44712;52.530;9.760;2023-02-14T20:53:46;102546.50;;;3.49;100.00
58927;BME280;44712;52.530;9.760;2023-02-14T20:56:14;102546.34;;;3.46;100.00
58927;BME280;44712;52.530;9.760;2023-02-14T20:58:41;102545.22;;;3.41;100.00
58927;BME280;44712;52.530;9.760;2023-02-14T21:01:27;102546.94;;;3.39;100.00
58927;BME280;44712;52.530;9.760;2023-02-14T21:03:54;102547.69;;;3.36;100.00
58927;BME280;44712;52.530;9.760;2023-02-14T21:06:24;102537.63;;;3.30;100.00
58927;BME280;44712;52.530;9.760;2023-02-14T21:08:51;102543.75;;;3.28;100.00
58927;BME280;44712;52.530;9.760;2023-02-14T21:11:20;102542.69;;;3.24;100.00
58927;BME280;44712;52.530;9.760;2023-02-14T21:13:48;102546.22;;;3.23;100.00
58927;BME280;44712;52.530;9.760;2023-02-14T21:16:17;102540.72;;;3.20;100.00
58927;BME280;44712;52.530;9.760;2023-02-14T21:18:47;102536.78;;;3.12;100.00
58927;BME280;44712;52.530;9.760;2023-02-14T21:23:49;102537.63;;;3.11;100.00
58927;BME280;44712;52.530;9.760;2023-02-14T21:26:17;102534.03;;;3.10;100.00
58927;BME280;44712;52.530;9.760;2023-02-14T21:28:44;102518.88;;;3.11;100.00
58927;BME280;44712;52.530;9.760;2023-02-14T21:31:13;102521.50;;;3.09;100.00
58927;BME280;44712;52.530;9.760;2023-02-14T21:33:40;102524.81;;;3.04;100.00
58927;BME280;44712;52.530;9.760;2023-02-14T21:36:10;102520.31;;;3.03;100.00
58927;BME280;44712;52.530;9.760;2023-02-14T21:38:37;102523.81;;;3.01;100.00
58927;BME280;44712;52.530;9.760;2023-02-14T21:41:15;102517.50;;;2.99;100.00
58927;BME280;44712;52.530;9.760;2023-02-14T21:43:44;102520.94;;;2.97;100.00
58927;BME280;44712;52.530;9.760;2023-02-14T21:46:14;102527.06;;;2.94;100.00
58927;BME280;44712;52.530;9.760;2023-02-14T21:48:44;102530.28;;;2.87;100.00
58927;BME280;44712;52.530;9.760;2023-02-14T21:51:31;102512.25;;;2.83;100.00
58927;BME280;44712;52.530;9.760;2023-02-14T21:53:59;102501.41;;;2.80;100.00
58927;BME280;44712;52.530;9.760;2023-02-14T21:56:27;102500.28;;;2.75;100.00
58927;BME280;44712;52.530;9.760;2023-02-14T21:58:56;102499.16;;;2.89;100.00
58927;BME280;44712;52.530;9.760;2023-02-14T22:01:25;102492.91;;;3.08;100.00
58927;BME280;44712;52.530;9.760;2023-02-14T22:03:57;102495.22;;;3.00;100.00
58927;BME280;44712;52.530;9.760;2023-02-14T22:06:30;102495.50;;;2.87;100.00
58927;BME280;44712;52.530;9.760;2023-02-14T22:09:02;102495.44;;;2.85;100.00
58927;BME280;44712;52.530;9.760;2023-02-14T22:11:29;102492.56;;;2.81;100.00
58927;BME280;44712;52.530;9.760;2023-02-14T22:13:56;102497.72;;;2.78;100.00
58927;BME280;44712;52.530;9.760;2023-02-14T22:16:24;102485.94;;;2.73;100.00
58927;BME280;44712;52.530;9.760;2023-02-14T22:18:51;102492.13;;;2.72;100.00
58927;BME280;44712;52.530;9.760;2023-02-14T22:21:23;102489.97;;;2.64;100.00
58927;BME280;44712;52.530;9.760;2023-02-14T22:23:51;102497.56;;;2.55;100.00
58927;BME280;44712;52.530;9.760;2023-02-14T22:26:29;102493.06;;;2.54;100.00
58927;BME280;44712;52.530;9.760;2023-02-14T22:28:58;102496.28;;;2.47;100.00
58927;BME280;44712;52.530;9.760;2023-02-14T22:31:31;102490.66;;;2.41;100.00
58927;BME280;44712;52.530;9.760;2023-02-14T22:34:00;102498.22;;;2.31;100.00
58927;BME280;44712;52.530;9.760;2023-02-14T22:36:27;102500.44;;;2.22;100.00
58927;BME280;44712;52.530;9.760;2023-02-14T22:38:55;102496.47;;;2.14;100.00
58927;BME280;44712;52.530;9.760;2023-02-14T22:41:23;102493.50;;;2.08;100.00
58927;BME280;44712;52.530;9.760;2023-02-14T22:43:51;102488.84;;;2.04;100.00
58927;BME280;44712;52.530;9.760;2023-02-14T22:46:24;102494.88;;;1.99;100.00
58927;BME280;44712;52.530;9.760;2023-02-14T22:48:51;102492.00;;;1.96;100.00
58927;BME280;44712;52.530;9.760;2023-02-14T22:51:38;102482.88;;;1.91;100.00
58927;BME280;44712;52.530;9.760;2023-02-14T22:54:11;102481.19;;;1.93;100.00
58927;BME280;44712;52.530;9.760;2023-02-14T22:56:43;102493.56;;;1.91;100.00
58927;BME280;44712;52.530;9.760;2023-02-14T22:59:24;102492.22;;;1.83;100.00
58927;BME280;44712;52.530;9.760;2023-02-14T23:01:53;102476.81;;;1.77;100.00
58927;BME280;44712;52.530;9.760;2023-02-14T23:04:21;102478.28;;;1.71;100.00
58927;BME280;44712;52.530;9.760;2023-02-14T23:06:53;102475.13;;;1.61;100.00
58927;BME280;44712;52.530;9.760;2023-02-14T23:09:20;102468.34;;;1.50;100.00
58927;BME280;44712;52.530;9.760;2023-02-14T23:11:48;102471.50;;;1.43;100.00
58927;BME280;44712;52.530;9.760;2023-02-14T23:14:16;102468.59;;;1.38;100.00
58927;BME280;44712;52.530;9.760;2023-02-14T23:17:12;102472.84;;;1.34;100.00
58927;BME280;44712;52.530;9.760;2023-02-14T23:19:40;102472.56;;;1.28;100.00
58927;BME280;44712;52.530;9.760;2023-02-14T23:22:34;102473.13;;;1.23;100.00
58927;BME280;44712;52.530;9.760;2023-02-14T23:25:05;102472.06;;;1.19;100.00
58927;BME280;44712;52.530;9.760;2023-02-14T23:27:40;102470.06;;;1.15;100.00
58927;BME280;44712;52.530;9.760;2023-02-14T23:32:42;102469.22;;;1.16;100.00
58927;BME280;44712;52.530;9.760;2023-02-14T23:35:10;102471.56;;;1.10;100.00
58927;BME280;44712;52.530;9.760;2023-02-14T23:37:36;102469.56;;;1.06;100.00
58927;BME280;44712;52.530;9.760;2023-02-14T23:40:04;102460.47;;;1.02;100.00
58927;BME280;44712;52.530;9.760;2023-02-14T23:42:32;102466.56;;;0.99;100.00
58927;BME280;44712;52.530;9.760;2023-02-14T23:44:59;102454.88;;;0.97;100.00
58927;BME280;44712;52.530;9.760;2023-02-14T23:47:48;102456.72;;;0.98;100.00
58927;BME280;44712;52.530;9.760;2023-02-14T23:50:15;102453.06;;;0.96;100.00
58927;BME280;44712;52.530;9.760;2023-02-14T23:52:43;102454.31;;;0.87;100.00
58927;BME280;44712;52.530;9.760;2023-02-14T23:55:10;102451.56;;;0.85;100.00
58927;BME280;44712;52.530;9.760;2023-02-14T23:57:37;102446.00;;;0.80;100.00
